Time;durP1;ratioP1;P1;durP2;ratioP2;P2;SDS_P1;SDS_P2;PMS_P1;PMS_P2;Temp;Humidity;BMP_temperature;BMP_pressure;BME280_temperature;BME280_humidity;BME280_pressure;Samples;Min_cycle;Max_cycle;Signal;HPM_P1;HPM_P2
2023/04/20 00:00:29;;;;;;;7.13;4.78;;;4.80;1.00;;;;;;7365816;19;20017;-68
2023/04/20 00:02:59;;;;;;;7.75;5.03;;;4.80;1.00;;;;;;7368955;19;20007;-70
2023/04/20 00:05:30;;;;;;;7.78;4.43;;;4.80;1.00;;;;;;7364655;19;20453;-70
2023/04/20 00:08:01;;;;;;;5.80;4.15;;;4.80;1.00;;;;;;7369201;19;20014;-68
2023/04/20 00:10:30;;;;;;;7.72;4.60;;;4.80;1.00;;;;;;7386965;19;20111;-70
2023/04/20 00:13:03;;;;;;;9.25;5.05;;;4.80;1.00;;;;;;7368254;19;20366;-70
2023/04/20 00:15:33;;;;;;;6.95;5.00;;;4.80;1.00;;;;;;7365327;19;20011;-69
2023/04/20 00:18:03;;;;;;;7.55;4.88;;;4.80;1.00;;;;;;7367859;19;20019;-70
2023/04/20 00:20:33;;;;;;;6.50;4.55;;;4.80;1.00;;;;;;7366397;19;20014;-69
2023/04/20 00:23:04;;;;;;;6.75;4.30;;;4.70;1.00;;;;;;7368187;19;20022;-69
2023/04/20 00:25:34;;;;;;;6.00;4.68;;;4.70;1.00;;;;;;7386933;19;20002;-69
2023/04/20 00:28:07;;;;;;;5.93;4.82;;;4.70;1.00;;;;;;7374816;19;20752;-69
2023/04/20 00:30:36;;;;;;;5.65;4.50;;;4.70;1.00;;;;;;7371835;19;20025;-68
2023/04/20 00:33:06;;;;;;;8.52;4.72;;;4.60;1.00;;;;;;7375395;19;20015;-69
2023/04/20 00:35:36;;;;;;;7.78;4.50;;;4.50;1.00;;;;;;7373282;19;20008;-70
2023/04/20 00:38:06;;;;;;;10.10;5.15;;;4.50;1.00;;;;;;7374078;19;20006;-70
2023/04/20 00:40:36;;;;;;;7.35;5.03;;;4.50;1.00;;;;;;7393991;19;20086;-68
2023/04/20 00:43:14;;;;;;;7.88;5.15;;;4.40;1.00;;;;;;7375299;19;20473;-68
2023/04/20 00:45:44;;;;;;;8.38;5.55;;;4.40;1.00;;;;;;7372730;19;20007;-68
2023/04/20 00:48:14;;;;;;;8.85;5.60;;;4.40;1.00;;;;;;7374883;19;20511;-70
2023/04/20 00:50:44;;;;;;;10.07;6.05;;;4.40;1.00;;;;;;7373106;19;20010;-70
2023/04/20 00:53:15;;;;;;;8.55;5.55;;;4.40;1.00;;;;;;7375379;19;20688;-70
2023/04/20 00:55:46;;;;;;;7.00;4.90;;;4.30;1.00;;;;;;7372016;19;20538;-68
2023/04/20 00:58:18;;;;;;;8.55;4.97;;;4.30;1.00;;;;;;7394954;19;20021;-68
2023/04/20 01:00:48;;;;;;;6.53;4.82;;;4.30;1.00;;;;;;7371282;19;20018;-69
2023/04/20 01:03:18;;;;;;;8.45;5.38;;;4.20;1.00;;;;;;7374823;19;20010;-70
2023/04/20 01:05:48;;;;;;;8.32;6.00;;;4.20;1.00;;;;;;7372654;19;20021;-70
2023/04/20 01:08:18;;;;;;;7.00;5.25;;;4.20;1.00;;;;;;7374496;19;20063;-68
2023/04/20 01:10:48;;;;;;;6.90;5.40;;;4.30;1.00;;;;;;7371214;19;20018;-69
2023/04/20 01:13:20;;;;;;;7.85;5.30;;;4.30;1.00;;;;;;7396150;19;20026;-68
2023/04/20 01:15:51;;;;;;;8.68;5.25;;;4.30;1.00;;;;;;7372375;19;20021;-69
2023/04/20 01:18:21;;;;;;;9.23;5.40;;;4.30;1.00;;;;;;7371545;19;20458;-69
2023/04/20 01:20:51;;;;;;;7.78;5.50;;;4.20;1.00;;;;;;7372562;19;20006;-69
2023/04/20 01:23:24;;;;;;;7.07;5.57;;;4.10;1.00;;;;;;7373105;19;20352;-70
2023/04/20 01:25:53;;;;;;;9.77;5.30;;;4.10;1.00;;;;;;7371744;19;20471;-68
2023/04/20 01:28:25;;;;;;;8.48;6.07;;;4.00;1.00;;;;;;7394138;19;20069;-69
2023/04/20 01:30:55;;;;;;;9.05;5.63;;;4.00;1.00;;;;;;7370373;19;20482;-69
2023/04/20 01:33:25;;;;;;;9.85;6.45;;;4.00;1.00;;;;;;7371715;19;20049;-70
2023/04/20 01:35:55;;;;;;;8.70;5.15;;;4.00;1.00;;;;;;7371997;19;20490;-69
2023/04/20 01:38:30;;;;;;;11.02;5.60;;;4.00;1.00;;;;;;7369692;19;20006;-69
2023/04/20 01:41:01;;;;;;;9.32;5.82;;;3.90;1.00;;;;;;7369948;19;21014;-69
2023/04/20 01:43:31;;;;;;;11.55;5.90;;;3.90;1.00;;;;;;7393128;19;20015;-69
2023/04/20 01:46:01;;;;;;;7.43;5.93;;;3.90;1.00;;;;;;7371467;19;20017;-69
2023/04/20 01:48:31;;;;;;;9.57;6.93;;;3.80;1.00;;;;;;7371929;19;20014;-69
2023/04/20 01:51:01;;;;;;;6.75;5.60;;;3.70;1.00;;;;;;7371979;19;20104;-69
2023/04/20 01:53:33;;;;;;;7.53;5.53;;;3.70;1.00;;;;;;7371237;19;20002;-69
2023/04/20 01:56:03;;;;;;;10.43;5.60;;;3.80;1.00;;;;;;7371405;19;20010;-69
2023/04/20 01:58:33;;;;;;;7.45;5.72;;;3.80;1.00;;;;;;7392628;19;20359;-69
2023/04/20 02:01:04;;;;;;;8.65;5.10;;;3.80;1.00;;;;;;7369716;19;20013;-69
2023/04/20 02:03:34;;;;;;;8.75;5.28;;;3.80;1.00;;;;;;7370855;19;20011;-69
2023/04/20 02:06:04;;;;;;;7.28;5.50;;;3.70;1.00;;;;;;7371205;19;20035;-69
2023/04/20 02:08:37;;;;;;;7.75;5.88;;;3.70;1.00;;;;;;7370946;19;20025;-69
2023/04/20 02:11:07;;;;;;;7.35;5.05;;;3.70;1.00;;;;;;7370352;19;20007;-69
2023/04/20 02:13:37;;;;;;;8.52;6.00;;;3.50;1.00;;;;;;7392923;19;20070;-69
2023/04/20 02:16:08;;;;;;;7.93;5.78;;;3.40;1.00;;;;;;7371118;19;20017;-70
2023/04/20 02:18:38;;;;;;;8.18;6.25;;;3.40;1.00;;;;;;7370746;19;20010;-68
2023/04/20 02:21:08;;;;;;;8.18;6.43;;;3.30;1.00;;;;;;7370821;19;20494;-69
2023/04/20 02:23:41;;;;;;;9.15;6.57;;;3.20;1.00;;;;;;7370309;19;20017;-69
2023/04/20 02:26:11;;;;;;;9.02;6.30;;;3.20;1.00;;;;;;7370438;19;20027;-68
2023/04/20 02:28:40;;;;;;;9.27;6.22;;;3.20;1.00;;;;;;7371604;19;20014;-69
2023/04/20 02:31:10;;;;;;;10.02;6.97;;;3.20;1.00;;;;;;7390592;19;20021;-68
2023/04/20 02:33:43;;;;;;;9.63;6.97;;;3.10;1.00;;;;;;7370263;19;20432;-70
2023/04/20 02:36:12;;;;;;;9.20;6.70;;;3.10;1.00;;;;;;7370005;19;20374;-69
2023/04/20 02:38:45;;;;;;;11.68;6.70;;;3.00;1.00;;;;;;7369615;19;20015;-68
2023/04/20 02:41:15;;;;;;;10.43;6.75;;;3.10;1.00;;;;;;7370701;19;20030;-69
2023/04/20 02:43:45;;;;;;;16.52;7.03;;;3.10;1.00;;;;;;7369886;19;20018;-69
2023/04/20 02:46:15;;;;;;;10.05;7.00;;;3.10;1.00;;;;;;7391380;19;20017;-69
2023/04/20 02:48:45;;;;;;;12.32;7.00;;;3.10;1.00;;;;;;7369712;19;20022;-68
2023/04/20 02:51:15;;;;;;;12.38;7.57;;;3.00;1.00;;;;;;7370054;19;20536;-69
2023/04/20 02:53:47;;;;;;;10.88;7.18;;;2.90;1.00;;;;;;7369687;19;20010;-69
2023/04/20 02:56:17;;;;;;;9.82;7.72;;;2.90;1.00;;;;;;7368859;19;20006;-69
2023/04/20 02:58:47;;;;;;;8.88;7.47;;;2.90;1.00;;;;;;7369543;19;20035;-68
2023/04/20 03:01:17;;;;;;;12.32;7.63;;;3.00;1.00;;;;;;7391432;19;20028;-69
2023/04/20 03:03:48;;;;;;;9.60;7.40;;;3.00;1.00;;;;;;7369482;19;20085;-69
2023/04/20 03:06:18;;;;;;;11.35;8.50;;;3.00;1.00;;;;;;7369121;19;20006;-68
2023/04/20 03:08:51;;;;;;;10.20;8.30;;;3.00;1.00;;;;;;7369297;19;20085;-69
2023/04/20 03:11:21;;;;;;;14.23;8.52;;;2.90;1.00;;;;;;7369305;19;20466;-69
2023/04/20 03:13:51;;;;;;;10.20;7.53;;;2.80;1.00;;;;;;7369056;19;20328;-68
2023/04/20 03:16:21;;;;;;;11.35;7.32;;;2.80;1.00;;;;;;7389724;19;20007;-69
2023/04/20 03:18:51;;;;;;;11.05;6.85;;;2.90;1.00;;;;;;7368664;19;20009;-68
2023/04/20 03:21:21;;;;;;;9.65;7.55;;;2.80;1.00;;;;;;7367733;19;20003;-69
2023/04/20 03:23:53;;;;;;;11.52;7.90;;;2.80;1.00;;;;;;7368891;19;20085;-69
2023/04/20 03:26:23;;;;;;;11.25;8.40;;;2.80;1.00;;;;;;7367736;19;20121;-69
2023/04/20 03:28:53;;;;;;;12.77;7.55;;;2.90;1.00;;;;;;7369527;19;20010;-69
2023/04/20 03:31:23;;;;;;;10.43;7.63;;;3.10;1.00;;;;;;7389566;19;20011;-69
2023/04/20 03:33:53;;;;;;;11.27;7.20;;;3.00;1.00;;;;;;7368367;19;20010;-68
2023/04/20 03:36:22;;;;;;;11.05;7.53;;;2.90;1.00;;;;;;7366937;19;20022;-69
2023/04/20 03:38:55;;;;;;;9.70;7.30;;;2.90;1.00;;;;;;7368974;19;20013;-68
2023/04/20 03:41:25;;;;;;;11.02;8.15;;;2.80;1.00;;;;;;7367342;19;20007;-68
2023/04/20 03:43:55;;;;;;;9.55;7.28;;;2.90;1.00;;;;;;7368799;19;20014;-69
2023/04/20 03:46:25;;;;;;;11.05;7.63;;;2.70;1.00;;;;;;7388610;19;20014;-69
2023/04/20 03:48:55;;;;;;;11.85;7.88;;;2.60;1.00;;;;;;7368051;19;20014;-67
2023/04/20 03:51:25;;;;;;;10.57;7.85;;;2.60;1.00;;;;;;7367574;19;20347;-69
2023/04/20 03:53:57;;;;;;;10.63;8.02;;;2.50;1.00;;;;;;7368056;19;20082;-69
2023/04/20 03:56:27;;;;;;;10.73;7.68;;;2.50;1.00;;;;;;7367865;19;20029;-69
2023/04/20 03:58:57;;;;;;;10.82;8.48;;;2.50;1.00;;;;;;7367732;19;22355;-70
2023/04/20 04:01:27;;;;;;;12.05;8.48;;;2.40;1.00;;;;;;7392232;19;20091;-70
2023/04/20 04:03:57;;;;;;;12.93;9.50;;;2.50;1.00;;;;;;7375255;19;20014;-69
2023/04/20 04:06:27;;;;;;;11.23;8.30;;;2.40;1.00;;;;;;7374870;19;20010;-70
2023/04/20 04:09:00;;;;;;;14.27;8.88;;;2.30;1.00;;;;;;7375106;19;20017;-70
2023/04/20 04:11:31;;;;;;;12.27;8.90;;;2.30;1.10;;;;;;7375907;19;20018;-69
2023/04/20 04:14:03;;;;;;;12.63;8.85;;;2.30;2.30;;;;;;7374612;19;20504;-68
2023/04/20 04:16:33;;;;;;;14.52;8.73;;;2.20;2.20;;;;;;7394273;19;20081;-69
2023/04/20 04:19:03;;;;;;;13.45;8.77;;;2.20;2.50;;;;;;7374777;19;20010;-69
2023/04/20 04:21:33;;;;;;;13.95;10.05;;;2.20;3.50;;;;;;7374887;19;20473;-69
2023/04/20 04:24:06;;;;;;;15.50;9.43;;;2.20;3.50;;;;;;7373744;19;20014;-68
2023/04/20 04:26:36;;;;;;;13.32;9.13;;;2.20;3.40;;;;;;7374602;19;20498;-68
2023/04/20 04:29:06;;;;;;;13.35;9.25;;;2.20;3.20;;;;;;7374664;19;20014;-69
2023/04/20 04:31:36;;;;;;;13.20;9.00;;;2.30;3.20;;;;;;7396604;19;20025;-69
2023/04/20 04:34:06;;;;;;;13.90;10.05;;;2.30;2.90;;;;;;7373854;19;20039;-69
2023/04/20 04:36:36;;;;;;;13.05;9.50;;;2.20;2.70;;;;;;7374008;19;20709;-68
2023/04/20 04:39:08;;;;;;;11.70;8.98;;;2.20;3.50;;;;;;7374236;19;20003;-69
2023/04/20 04:41:38;;;;;;;13.68;9.68;;;2.20;3.50;;;;;;7374477;19;20010;-69
2023/04/20 04:44:09;;;;;;;13.23;9.40;;;2.80;1.30;;;;;;7373129;19;20089;-68
2023/04/20 04:46:39;;;;;;;16.13;9.27;;;3.60;1.00;;;;;;7385919;19;20025;-70
2023/04/20 04:49:10;;;;;;;13.00;8.52;;;4.10;1.00;;;;;;7395459;19;20022;-69
2023/04/20 04:51:40;;;;;;;14.50;9.18;;;4.60;1.00;;;;;;7373827;19;20356;-70
2023/04/20 04:54:12;;;;;;;10.63;7.70;;;5.40;1.00;;;;;;7372979;19;20007;-69
2023/04/20 04:56:42;;;;;;;12.48;7.85;;;5.50;1.00;;;;;;7374284;19;20015;-69
2023/04/20 04:59:12;;;;;;;11.93;7.90;;;5.80;1.00;;;;;;7373078;19;20006;-69
2023/04/20 05:01:42;;;;;;;12.60;7.35;;;5.90;1.00;;;;;;7374221;19;20470;-68
2023/04/20 05:04:12;;;;;;;11.77;7.55;;;6.30;1.00;;;;;;7394576;19;20401;-69
2023/04/20 05:06:42;;;;;;;9.82;7.53;;;6.50;1.00;;;;;;7373292;19;20011;-69
2023/04/20 05:09:14;;;;;;;9.88;7.18;;;6.30;1.00;;;;;;7372554;19;20078;-69
2023/04/20 05:11:45;;;;;;;9.95;7.22;;;7.10;1.00;;;;;;7372333;19;20017;-69
2023/04/20 05:14:15;;;;;;;11.43;7.03;;;7.40;1.00;;;;;;7371563;19;20026;-68
2023/04/20 05:16:45;;;;;;;10.75;7.10;;;7.50;1.00;;;;;;7373141;19;20322;-69
2023/04/20 05:19:14;;;;;;;9.45;7.03;;;8.30;1.00;;;;;;7394095;19;20021;-69
2023/04/20 05:21:45;;;;;;;8.02;6.30;;;8.40;1.00;;;;;;7373278;19;20030;-70
2023/04/20 05:24:18;;;;;;;9.93;6.70;;;8.60;1.00;;;;;;7371672;19;20102;-69
2023/04/20 05:26:48;;;;;;;11.85;6.45;;;8.40;1.00;;;;;;7372775;19;20018;-69
2023/04/20 05:29:18;;;;;;;10.65;7.00;;;8.70;1.00;;;;;;7371819;19;20014;-69
2023/04/20 05:31:48;;;;;;;11.63;7.28;;;8.70;1.00;;;;;;7372486;19;20375;-69
2023/04/20 05:34:18;;;;;;;9.68;6.65;;;8.60;1.00;;;;;;7392872;19;20014;-70
2023/04/20 05:36:48;;;;;;;12.00;7.90;;;8.70;1.00;;;;;;7371364;19;20129;-69
2023/04/20 05:39:21;;;;;;;15.05;9.23;;;7.90;1.00;;;;;;7371005;19;20002;-70
2023/04/20 05:41:51;;;;;;;12.02;8.02;;;5.80;1.00;;;;;;7370699;19;20014;-70
2023/04/20 05:44:21;;;;;;;9.68;7.13;;;5.20;1.00;;;;;;7368735;19;20018;-69
2023/04/20 05:46:50;;;;;;;9.00;7.07;;;5.00;1.00;;;;;;7371655;19;20028;-69
2023/04/20 05:49:20;;;;;;;9.75;6.78;;;4.90;1.00;;;;;;7391404;19;20014;-68
2023/04/20 05:51:50;;;;;;;13.55;7.28;;;5.00;1.00;;;;;;7371981;19;20561;-68
2023/04/20 05:54:23;;;;;;;10.00;7.47;;;5.00;1.00;;;;;;7370470;19;20078;-70
2023/04/20 05:56:52;;;;;;;10.88;7.32;;;5.00;1.00;;;;;;7371580;19;20010;-69
2023/04/20 05:59:23;;;;;;;12.38;8.07;;;4.90;1.00;;;;;;7369590;19;20017;-70
2023/04/20 06:01:52;;;;;;;11.57;7.53;;;4.90;1.00;;;;;;7369855;19;20589;-68
2023/04/20 06:04:22;;;;;;;9.30;7.25;;;4.80;1.00;;;;;;7391175;19;20010;-69
2023/04/20 06:06:53;;;;;;;10.50;7.63;;;5.00;1.00;;;;;;7371247;19;20086;-69
2023/04/20 06:09:25;;;;;;;11.43;8.32;;;5.20;1.00;;;;;;7368775;19;20435;-70
2023/04/20 06:11:56;;;;;;;12.00;7.82;;;5.30;1.00;;;;;;7371384;19;20018;-69
2023/04/20 06:14:26;;;;;;;9.35;7.38;;;5.30;1.00;;;;;;7368721;19;20010;-70
2023/04/20 06:16:55;;;;;;;9.88;7.25;;;5.30;1.00;;;;;;7371783;19;20248;-70
2023/04/20 06:19:25;;;;;;;15.05;8.82;;;5.20;1.00;;;;;;7390035;19;20017;-69
2023/04/20 06:21:55;;;;;;;11.13;7.65;;;5.40;1.00;;;;;;7369814;19;20020;-69
2023/04/20 06:24:30;;;;;;;13.35;7.57;;;5.50;1.00;;;;;;7365822;19;20022;-70
2023/04/20 06:27:00;;;;;;;15.02;8.02;;;5.50;1.00;;;;;;7370011;19;20016;-69
2023/04/20 06:29:30;;;;;;;12.65;8.05;;;5.50;1.00;;;;;;7368212;19;20026;-69
2023/04/20 06:32:00;;;;;;;12.20;8.13;;;5.70;1.00;;;;;;7371319;19;20031;-69
2023/04/20 06:34:30;;;;;;;10.20;7.97;;;5.70;1.00;;;;;;7389982;19;20039;-69
2023/04/20 06:37:00;;;;;;;12.48;8.27;;;5.70;1.00;;;;;;7370186;19;20014;-69
2023/04/20 06:39:34;;;;;;;12.63;8.52;;;5.80;1.00;;;;;;7368538;19;20494;-70
2023/04/20 06:42:04;;;;;;;13.30;8.27;;;5.90;1.00;;;;;;7369327;19;20014;-70
2023/04/20 06:44:34;;;;;;;11.73;8.38;;;5.70;1.00;;;;;;7368479;19;20007;-69
2023/04/20 06:47:03;;;;;;;14.60;8.15;;;5.90;1.00;;;;;;7370635;19;20078;-69
2023/04/20 06:49:35;;;;;;;12.30;8.48;;;6.00;1.00;;;;;;7389449;19;20074;-70
2023/04/20 06:52:05;;;;;;;12.27;9.25;;;6.10;1.00;;;;;;7370377;19;20034;-68
2023/04/20 06:54:38;;;;;;;15.05;8.82;;;6.10;1.00;;;;;;7367304;19;20014;-69
2023/04/20 06:57:07;;;;;;;10.75;7.40;;;6.20;1.00;;;;;;7370661;19;20043;-69
2023/04/20 06:59:37;;;;;;;9.52;7.38;;;6.30;1.00;;;;;;7368608;19;20003;-72
2023/04/20 07:02:07;;;;;;;11.82;7.97;;;6.70;1.00;;;;;;7369062;19;20018;-70
2023/04/20 07:04:37;;;;;;;11.57;7.30;;;6.50;1.00;;;;;;7388106;19;20038;-69
2023/04/20 07:07:07;;;;;;;12.82;8.38;;;6.50;1.00;;;;;;7369807;19;20483;-69
2023/04/20 07:09:40;;;;;;;11.35;8.57;;;6.50;1.00;;;;;;7367067;19;20015;-69
2023/04/20 07:12:10;;;;;;;13.25;8.60;;;6.50;1.00;;;;;;7369976;19;20010;-69
2023/04/20 07:14:40;;;;;;;11.77;7.82;;;6.50;1.00;;;;;;7366598;19;20011;-70
2023/04/20 07:17:10;;;;;;;12.77;8.63;;;6.80;1.00;;;;;;7370133;19;20014;-68
2023/04/20 07:19:40;;;;;;;13.90;7.85;;;6.70;1.00;;;;;;7377477;19;20025;-71
2023/04/20 07:22:09;;;;;;;11.60;7.75;;;7.20;1.00;;;;;;7390666;19;20015;-69
2023/04/20 07:24:42;;;;;;;14.23;8.55;;;7.20;1.00;;;;;;7367277;19;20481;-69
2023/04/20 07:27:12;;;;;;;14.07;9.05;;;7.50;1.00;;;;;;7369567;19;20013;-69
2023/04/20 07:29:42;;;;;;;12.20;8.73;;;7.50;1.00;;;;;;7367175;19;20021;-70
2023/04/20 07:32:12;;;;;;;13.02;8.82;;;7.40;1.00;;;;;;7369167;19;20049;-69
2023/04/20 07:34:42;;;;;;;14.10;8.85;;;7.60;1.00;;;;;;7366512;19;20014;-70
2023/04/20 07:37:12;;;;;;;12.07;8.30;;;7.90;1.00;;;;;;7390412;19;20029;-69
2023/04/20 07:39:44;;;;;;;11.95;7.95;;;7.70;1.00;;;;;;7366003;19;20057;-70
2023/04/20 07:42:14;;;;;;;10.57;8.07;;;7.80;1.00;;;;;;7367608;19;20006;-69
2023/04/20 07:44:44;;;;;;;12.40;8.65;;;7.80;1.00;;;;;;7366646;19;20015;-69
2023/04/20 07:47:14;;;;;;;10.57;7.88;;;7.70;1.00;;;;;;7368654;19;20352;-70
2023/04/20 07:49:45;;;;;;;11.70;7.70;;;8.00;1.00;;;;;;7365952;19;20025;-70
2023/04/20 07:52:15;;;;;;;11.70;7.75;;;8.20;1.00;;;;;;7390351;19;20477;-69
2023/04/20 07:54:49;;;;;;;11.93;7.80;;;7.90;1.00;;;;;;7365572;19;20006;-70
2023/04/20 07:57:18;;;;;;;10.52;7.65;;;7.90;1.00;;;;;;7368437;19;20015;-69
2023/04/20 07:59:48;;;;;;;9.55;7.55;;;8.30;1.00;;;;;;7366782;19;20034;-69
2023/04/20 08:02:18;;;;;;;10.70;7.82;;;8.50;1.00;;;;;;7367144;19;20759;-69
2023/04/20 08:04:49;;;;;;;14.40;8.30;;;8.30;1.00;;;;;;7366275;19;20018;-70
2023/04/20 08:07:20;;;;;;;10.88;7.60;;;8.20;1.00;;;;;;7390315;19;20014;-70
2023/04/20 08:09:52;;;;;;;11.93;7.60;;;8.10;1.00;;;;;;7366112;19;20700;-70
2023/04/20 08:12:22;;;;;;;12.93;8.57;;;8.40;1.00;;;;;;7367661;19;20007;-68
2023/04/20 08:14:52;;;;;;;11.57;9.02;;;8.30;1.00;;;;;;7365808;19;20010;-68
2023/04/20 08:17:22;;;;;;;11.73;9.15;;;8.90;1.00;;;;;;7366015;19;20017;-69
2023/04/20 08:19:52;;;;;;;11.73;8.25;;;8.40;1.00;;;;;;7366801;19;20074;-69
2023/04/20 08:22:23;;;;;;;11.25;8.38;;;7.90;1.00;;;;;;7387211;19;20010;-70
2023/04/20 08:24:55;;;;;;;11.68;9.15;;;7.90;1.00;;;;;;7365636;19;20355;-70
2023/04/20 08:27:28;;;;;;;12.25;8.95;;;8.10;1.00;;;;;;7367010;19;20497;-69
2023/04/20 08:29:58;;;;;;;10.88;8.55;;;8.20;1.00;;;;;;7365596;19;20030;-68
2023/04/20 08:32:28;;;;;;;14.35;9.48;;;8.30;1.00;;;;;;7366959;19;20014;-69
2023/04/20 08:34:58;;;;;;;11.98;8.68;;;8.10;1.00;;;;;;7365601;19;20376;-70
2023/04/20 08:37:28;;;;;;;12.95;8.80;;;8.20;1.00;;;;;;7388097;19;20120;-68
2023/04/20 08:40:04;;;;;;;12.63;8.57;;;8.30;1.00;;;;;;7364869;19;20082;-69
2023/04/20 08:42:34;;;;;;;10.10;7.53;;;8.60;1.00;;;;;;7365554;19;20045;-68
2023/04/20 08:45:04;;;;;;;11.35;8.07;;;8.60;1.00;;;;;;7365487;19;20386;-69
2023/04/20 08:47:37;;;;;;;12.48;8.40;;;8.60;1.00;;;;;;7370362;19;20086;-69
2023/04/20 08:50:09;;;;;;;16.27;8.10;;;8.50;1.00;;;;;;7373040;19;20527;-69
2023/04/20 08:52:39;;;;;;;12.30;7.38;;;8.50;1.00;;;;;;7388961;19;20118;-69
2023/04/20 08:55:12;;;;;;;12.30;7.93;;;8.40;1.00;;;;;;7393848;19;20010;-68
2023/04/20 08:57:42;;;;;;;9.32;7.47;;;8.40;1.00;;;;;;7370044;19;20038;-70
2023/04/20 09:00:13;;;;;;;11.95;8.30;;;8.40;1.00;;;;;;7371622;19;20011;-70
2023/04/20 09:02:53;;;;;;;11.73;8.45;;;8.40;1.00;;;;;;7372914;19;20010;-69
2023/04/20 09:05:28;;;;;;;12.38;8.57;;;8.50;1.00;;;;;;7370743;19;20391;-67
2023/04/20 09:08:04;;;;;;;12.43;8.80;;;8.30;1.00;;;;;;7373966;19;20011;-68
2023/04/20 09:10:44;;;;;;;10.00;8.65;;;8.30;1.00;;;;;;7392719;19;20351;-70
2023/04/20 09:13:23;;;;;;;9.93;7.07;;;8.30;1.00;;;;;;7374481;19;20034;-69
2023/04/20 09:15:53;;;;;;;10.30;7.57;;;8.20;1.00;;;;;;7372270;19;20010;-68
2023/04/20 09:18:23;;;;;;;11.60;7.95;;;8.10;1.00;;;;;;7372778;19;20010;-69
2023/04/20 09:20:53;;;;;;;11.93;7.63;;;8.10;1.00;;;;;;7371907;19;20018;-68
2023/04/20 09:23:23;;;;;;;11.90;7.90;;;8.20;1.00;;;;;;7372030;19;20011;-69
2023/04/20 09:25:55;;;;;;;11.35;8.00;;;8.10;1.00;;;;;;7371449;19;20015;-69
2023/04/20 09:28:25;;;;;;;10.23;7.57;;;7.90;1.00;;;;;;7394098;19;20014;-69
2023/04/20 09:30:55;;;;;;;9.90;7.63;;;8.20;1.00;;;;;;7369645;19;20015;-69
2023/04/20 09:33:29;;;;;;;11.75;7.55;;;8.20;1.00;;;;;;7371763;19;20026;-68
2023/04/20 09:36:05;;;;;;;14.80;7.75;;;8.30;1.00;;;;;;7372662;19;20143;-69
2023/04/20 09:38:35;;;;;;;11.57;7.97;;;8.40;1.00;;;;;;7371827;19;20090;-68
2023/04/20 09:41:08;;;;;;;13.38;7.82;;;8.40;1.00;;;;;;7370775;19;20010;-69
2023/04/20 09:43:38;;;;;;;13.47;7.77;;;8.50;1.00;;;;;;7391192;19;20438;-69
2023/04/20 09:46:09;;;;;;;13.07;7.30;;;8.60;1.00;;;;;;7372487;19;20018;-68
2023/04/20 09:48:40;;;;;;;9.93;7.93;;;8.40;1.00;;;;;;7372153;19;20042;-69
2023/04/20 09:51:10;;;;;;;12.82;7.55;;;8.60;1.00;;;;;;7370431;19;20011;-70
2023/04/20 09:53:40;;;;;;;10.57;7.28;;;8.60;1.00;;;;;;7368644;19;20011;-70
2023/04/20 09:56:14;;;;;;;13.27;7.80;;;8.30;1.00;;;;;;7371982;19;20492;-69
2023/04/20 09:58:46;;;;;;;10.93;7.80;;;8.40;1.00;;;;;;7369477;19;20014;-69
2023/04/20 10:01:16;;;;;;;9.55;7.35;;;8.50;1.00;;;;;;7393670;19;20018;-70
2023/04/20 10:03:47;;;;;;;11.30;7.80;;;8.30;1.00;;;;;;7368774;19;20082;-70
2023/04/20 10:06:21;;;;;;;9.80;7.60;;;8.30;1.00;;;;;;7372450;19;20010;-69
2023/04/20 10:08:52;;;;;;;11.10;8.23;;;8.30;1.00;;;;;;7371835;19;20011;-69
2023/04/20 10:11:32;;;;;;;10.20;7.72;;;8.40;1.00;;;;;;7371062;19;20263;-70
2023/04/20 10:14:19;;;;;;;11.00;7.57;;;8.40;1.00;;;;;;7355625;19;20063;-69
2023/04/20 10:17:01;;;;;;;10.25;8.13;;;8.50;1.00;;;;;;7336097;19;20015;-69
2023/04/20 10:19:46;;;;;;;10.93;7.13;;;8.40;1.00;;;;;;7389954;19;20018;-70
2023/04/20 10:22:31;;;;;;;9.73;7.80;;;8.50;1.00;;;;;;7367808;19;20006;-68
2023/04/20 10:25:02;;;;;;;11.32;8.30;;;8.80;1.00;;;;;;7360805;19;20118;-70
2023/04/20 10:27:34;;;;;;;11.18;7.65;;;8.80;1.00;;;;;;7369115;19;20041;-71
2023/04/20 10:30:11;;;;;;;11.93;8.18;;;8.70;1.00;;;;;;7367682;19;20011;-70
2023/04/20 10:32:41;;;;;;;10.23;7.75;;;8.60;1.00;;;;;;7368482;19;20057;-70
2023/04/20 10:35:13;;;;;;;11.00;7.38;;;8.60;1.00;;;;;;7367497;19;20026;-69
2023/04/20 10:37:50;;;;;;;10.85;7.38;;;8.60;1.00;;;;;;7369184;19;20022;-70
2023/04/20 10:40:27;;;;;;;12.32;8.38;;;8.70;1.00;;;;;;7389061;19;20366;-74
2023/04/20 10:43:00;;;;;;;9.95;7.20;;;8.80;1.00;;;;;;7368148;19;20026;-70
2023/04/20 10:45:37;;;;;;;10.45;7.20;;;8.70;1.00;;;;;;7365187;19;20011;-70
2023/04/20 10:48:13;;;;;;;11.15;7.70;;;8.60;1.00;;;;;;7369703;19;20014;-71
2023/04/20 10:50:46;;;;;;;10.02;6.90;;;8.80;1.00;;;;;;7366482;19;20014;-71
2023/04/20 10:53:21;;;;;;;12.38;6.28;;;8.70;1.00;;;;;;7368629;19;20003;-70
2023/04/20 10:56:00;;;;;;;11.60;7.68;;;8.50;1.00;;;;;;7366521;19;20044;-70
2023/04/20 10:58:32;;;;;;;9.95;6.60;;;8.90;1.00;;;;;;7389952;19;20503;-70
2023/04/20 11:01:04;;;;;;;8.25;6.43;;;8.70;1.00;;;;;;7365360;19;20018;-71
2023/04/20 11:03:35;;;;;;;6.57;5.43;;;8.50;1.00;;;;;;7364420;19;20011;-70
2023/04/20 11:06:05;;;;;;;7.82;5.32;;;8.30;1.00;;;;;;7368376;19;20037;-70
2023/04/20 11:08:39;;;;;;;7.90;5.43;;;8.20;1.00;;;;;;7366893;19;20011;-71
2023/04/20 11:11:20;;;;;;;9.18;5.97;;;8.20;1.00;;;;;;7365880;19;20089;-72
2023/04/20 11:14:15;;;;;;;7.30;5.57;;;8.30;1.00;;;;;;7365004;19;20498;-70
2023/04/20 11:16:54;;;;;;;8.50;6.50;;;8.30;1.00;;;;;;7365247;19;20013;-70
2023/04/20 11:19:26;;;;;;;7.80;5.78;;;8.30;1.00;;;;;;7387672;19;20483;-70
2023/04/20 11:21:56;;;;;;;7.70;6.30;;;8.10;1.00;;;;;;7363542;19;20010;-69
2023/04/20 11:24:28;;;;;;;9.48;6.35;;;8.30;1.00;;;;;;7359964;19;20087;-70
2023/04/20 11:27:00;;;;;;;8.63;6.50;;;8.20;1.00;;;;;;7367402;19;20017;-70
2023/04/20 11:29:35;;;;;;;9.90;6.40;;;8.10;1.00;;;;;;7365206;19;20021;-70
2023/04/20 11:32:06;;;;;;;9.63;6.78;;;7.90;1.00;;;;;;7367521;19;20459;-69
2023/04/20 11:34:39;;;;;;;9.25;6.55;;;7.90;1.00;;;;;;7385718;19;20027;-70
2023/04/20 11:37:12;;;;;;;13.00;7.35;;;8.00;1.00;;;;;;7366610;19;20013;-70
2023/04/20 11:39:42;;;;;;;9.57;6.70;;;8.00;1.00;;;;;;7365463;19;20021;-71
2023/04/20 11:42:12;;;;;;;8.93;6.85;;;7.90;1.00;;;;;;7367429;19;20018;-70
2023/04/20 11:44:45;;;;;;;11.15;7.43;;;7.90;1.00;;;;;;7362250;19;20033;-70
2023/04/20 11:47:15;;;;;;;10.95;7.78;;;8.00;1.00;;;;;;7367639;19;20003;-70
2023/04/20 11:49:44;;;;;;;10.27;7.32;;;7.90;1.00;;;;;;7363756;19;20029;-72
2023/04/20 11:52:15;;;;;;;11.68;7.53;;;8.00;1.00;;;;;;7389165;19;20018;-69
2023/04/20 11:54:45;;;;;;;11.02;7.45;;;8.00;1.00;;;;;;7363086;19;20003;-71
2023/04/20 11:57:14;;;;;;;10.30;7.68;;;7.90;1.00;;;;;;7367685;19;20011;-70
2023/04/20 11:59:48;;;;;;;13.68;7.95;;;7.90;1.00;;;;;;7363483;19;20094;-70
2023/04/20 12:02:17;;;;;;;11.25;7.70;;;8.00;1.00;;;;;;7367383;19;20061;-70
2023/04/20 12:04:47;;;;;;;10.75;7.15;;;7.90;1.00;;;;;;7363257;19;20014;-70
2023/04/20 12:07:18;;;;;;;9.93;7.38;;;8.00;1.00;;;;;;7388935;19;20006;-71
2023/04/20 12:09:48;;;;;;;9.57;7.78;;;7.90;1.00;;;;;;7363558;19;20014;-71
2023/04/20 12:12:18;;;;;;;12.18;7.80;;;7.90;1.00;;;;;;7367309;19;20014;-69
2023/04/20 12:14:50;;;;;;;11.10;9.20;;;7.90;1.00;;;;;;7362577;19;20035;-70
2023/04/20 12:17:20;;;;;;;11.50;7.93;;;8.00;1.00;;;;;;7365464;19;20011;-71
2023/04/20 12:19:51;;;;;;;11.93;8.32;;;8.00;1.00;;;;;;7363824;19;20019;-69
2023/04/20 12:22:21;;;;;;;10.07;8.02;;;8.00;1.00;;;;;;7387415;19;20021;-70
2023/04/20 12:24:51;;;;;;;14.32;8.68;;;8.00;1.00;;;;;;7369181;19;20011;-70
2023/04/20 12:27:21;;;;;;;11.57;8.40;;;8.00;1.00;;;;;;7372639;19;20014;-71
2023/04/20 12:29:53;;;;;;;13.80;9.23;;;8.10;1.00;;;;;;7369165;19;20014;-71
2023/04/20 12:32:23;;;;;;;10.57;8.90;;;8.00;1.00;;;;;;7372830;19;20083;-70
2023/04/20 12:34:53;;;;;;;11.30;7.80;;;8.00;1.00;;;;;;7369740;19;20038;-70
2023/04/20 12:37:23;;;;;;;16.75;10.07;;;7.90;1.00;;;;;;7394819;19;20015;-69
2023/04/20 12:39:53;;;;;;;11.75;8.70;;;8.00;1.00;;;;;;7369663;19;20015;-69
2023/04/20 12:42:23;;;;;;;12.43;8.45;;;8.00;1.00;;;;;;7370724;19;20006;-69
2023/04/20 12:44:57;;;;;;;10.65;8.95;;;8.20;1.00;;;;;;7367375;19;20085;-70
2023/04/20 12:47:27;;;;;;;11.27;7.95;;;8.20;1.00;;;;;;7373097;19;20003;-69
2023/04/20 12:49:56;;;;;;;14.18;9.18;;;8.20;1.00;;;;;;7368879;19;20048;-71
2023/04/20 12:52:27;;;;;;;12.32;8.63;;;8.30;1.00;;;;;;7393010;19;20014;-70
2023/04/20 12:54:57;;;;;;;10.95;8.65;;;8.30;1.00;;;;;;7368168;19;20011;-71
2023/04/20 12:57:27;;;;;;;10.40;8.57;;;8.20;1.00;;;;;;7368931;19;20528;-70
2023/04/20 13:00:01;;;;;;;10.93;8.25;;;8.30;1.00;;;;;;7368195;19;20017;-69
2023/04/20 13:02:32;;;;;;;10.75;8.43;;;8.40;1.00;;;;;;7370781;19;20022;-71
2023/04/20 13:05:03;;;;;;;11.38;7.82;;;8.50;1.00;;;;;;7366551;19;20018;-70
2023/04/20 13:07:33;;;;;;;11.30;7.65;;;8.50;1.00;;;;;;7391756;19;20030;-70
2023/04/20 13:10:03;;;;;;;11.38;7.60;;;8.60;1.00;;;;;;7367402;19;20014;-69
2023/04/20 13:12:33;;;;;;;10.77;7.38;;;8.70;1.00;;;;;;7368580;19;20486;-70
2023/04/20 13:15:08;;;;;;;9.50;6.90;;;9.00;1.00;;;;;;7368461;19;20017;-68
2023/04/20 13:17:38;;;;;;;8.50;6.15;;;8.90;1.00;;;;;;7370431;19;20467;-70
2023/04/20 13:20:09;;;;;;;9.88;6.43;;;9.00;1.00;;;;;;7367485;19;20034;-70